Time;durP1;ratioP1;P1;durP2;ratioP2;P2;SDS_P1;SDS_P2;PMS_P1;PMS_P2;Temp;Humidity;BMP_temperature;BMP_pressure;BME280_temperature;BME280_humidity;BME280_pressure;Samples;Min_cycle;Max_cycle;Signal;HPM_P1;HPM_P2
2022/09/19 00:01:10;;;;;;;1.02;0.70;;;7.50;99.90;;;;;;5028553;28;20612;-71
2022/09/19 00:03:40;;;;;;;1.10;0.98;;;7.60;99.90;;;;;;5045314;28;20537;-71
2022/09/19 00:06:07;;;;;;;0.68;0.68;;;7.60;99.90;;;;;;5038284;28;20211;-71
2022/09/19 00:08:33;;;;;;;0.50;0.50;;;7.60;99.90;;;;;;5042651;28;20172;-71
2022/09/19 00:11:02;;;;;;;1.23;1.23;;;7.40;99.90;;;;;;5040897;28;20833;-71
2022/09/19 00:13:29;;;;;;;1.10;1.10;;;7.50;99.90;;;;;;5038544;28;20219;-71
2022/09/19 00:15:55;;;;;;;0.63;0.63;;;7.40;99.90;;;;;;5033395;28;20601;-71
2022/09/19 00:18:20;;;;;;;0.60;0.60;;;7.40;99.90;;;;;;5031186;28;20268;-71
2022/09/19 00:20:50;;;;;;;0.75;0.75;;;7.40;99.90;;;;;;5022321;28;20201;-71
2022/09/19 00:26:09;;;;;;;1.17;1.17;;;7.40;99.90;;;;;;5034894;28;20238;-71
2022/09/19 00:28:35;;;;;;;1.45;0.75;;;7.20;99.90;;;;;;5040668;28;20188;-71
2022/09/19 00:31:02;;;;;;;0.90;0.90;;;7.30;99.90;;;;;;5036554;28;20215;-71
2022/09/19 00:33:30;;;;;;;1.50;1.40;;;7.10;99.90;;;;;;5042317;28;20651;-72
2022/09/19 00:35:58;;;;;;;1.50;0.95;;;7.10;99.90;;;;;;5030102;28;20183;-72
2022/09/19 00:38:28;;;;;;;1.20;1.10;;;7.10;99.90;;;;;;5046225;28;20172;-71
2022/09/19 00:40:55;;;;;;;0.88;0.88;;;7.20;99.90;;;;;;5041249;28;20250;-71
2022/09/19 00:43:22;;;;;;;0.60;0.60;;;7.30;99.90;;;;;;5040255;28;20274;-71
2022/09/19 00:45:48;;;;;;;1.08;1.08;;;7.20;99.90;;;;;;5046289;28;20367;-71
2022/09/19 00:48:15;;;;;;;0.60;0.60;;;7.20;99.90;;;;;;5044044;28;20255;-71
2022/09/19 00:50:44;;;;;;;1.00;1.00;;;7.10;99.90;;;;;;5043823;28;20257;-71
2022/09/19 00:53:15;;;;;;;1.20;1.15;;;7.00;99.90;;;;;;5045919;28;20263;-72
2022/09/19 00:55:41;;;;;;;1.00;1.00;;;7.00;99.90;;;;;;5045052;28;20180;-71
2022/09/19 00:58:22;;;;;;;0.77;0.77;;;6.90;99.90;;;;;;5041832;28;20180;-71
2022/09/19 01:00:49;;;;;;;1.58;1.20;;;6.90;99.90;;;;;;5032367;28;20303;-71
2022/09/19 01:03:14;;;;;;;1.25;1.23;;;6.80;99.90;;;;;;5038089;28;20243;-71
2022/09/19 01:05:56;;;;;;;0.93;0.93;;;6.80;99.90;;;;;;5033493;28;20710;-71
2022/09/19 01:09:13;;;;;;;1.17;1.02;;;6.80;99.90;;;;;;5031635;28;20183;-71
2022/09/19 01:11:42;;;;;;;2.35;1.00;;;6.70;99.90;;;;;;5015474;28;20257;-72
2022/09/19 01:14:26;;;;;;;1.75;1.02;;;6.60;99.90;;;;;;5036923;28;20185;-71
2022/09/19 01:16:59;;;;;;;1.00;1.00;;;6.60;99.90;;;;;;5042117;28;20169;-71
2022/09/19 01:19:57;;;;;;;0.85;0.70;;;6.70;99.90;;;;;;5040934;28;20332;-71
2022/09/19 01:22:44;;;;;;;0.88;0.88;;;6.60;99.90;;;;;;5027262;28;20188;-71
2022/09/19 01:25:46;;;;;;;0.82;0.82;;;6.60;99.90;;;;;;5024752;28;20195;-71
2022/09/19 01:28:29;;;;;;;2.47;1.08;;;6.60;99.90;;;;;;5036927;28;20184;-72
2022/09/19 01:31:18;;;;;;;1.08;0.85;;;6.60;99.90;;;;;;5034907;28;20724;-71
2022/09/19 01:34:02;;;;;;;1.20;1.08;;;6.60;99.90;;;;;;5041944;28;20188;-71
2022/09/19 01:36:31;;;;;;;1.00;1.00;;;6.50;99.90;;;;;;5044521;28;20512;-71
2022/09/19 01:38:58;;;;;;;0.95;0.90;;;6.50;99.90;;;;;;5029782;28;20180;-71
2022/09/19 01:41:24;;;;;;;0.80;0.80;;;6.50;99.90;;;;;;5036805;28;20276;-72
2022/09/19 01:43:50;;;;;;;0.60;0.60;;;6.50;99.90;;;;;;5044309;28;20208;-72
2022/09/19 01:46:47;;;;;;;0.98;0.65;;;6.40;99.90;;;;;;5045072;28;20665;-72
2022/09/19 01:49:25;;;;;;;0.88;0.88;;;6.40;99.90;;;;;;5024860;28;20176;-71
2022/09/19 01:52:01;;;;;;;1.27;0.98;;;6.40;99.90;;;;;;5040634;28;20201;-72
2022/09/19 01:54:56;;;;;;;0.65;0.65;;;6.40;99.90;;;;;;5023202;28;20185;-71
2022/09/19 01:57:42;;;;;;;0.70;0.70;;;6.40;99.90;;;;;;5026540;28;20258;-72
2022/09/19 02:00:16;;;;;;;1.38;0.88;;;6.30;99.90;;;;;;5030700;28;20682;-72
2022/09/19 02:03:11;;;;;;;0.57;0.57;;;6.40;99.90;;;;;;5029281;28;20183;-72
2022/09/19 02:05:52;;;;;;;1.23;0.90;;;6.60;99.90;;;;;;5025339;28;20184;-72
2022/09/19 02:08:49;;;;;;;0.70;0.70;;;6.50;99.90;;;;;;5034397;28;20180;-72
2022/09/19 02:11:21;;;;;;;0.90;0.70;;;6.60;99.90;;;;;;5032463;28;20197;-72
2022/09/19 02:13:54;;;;;;;1.15;1.15;;;6.70;99.90;;;;;;5036097;28;20179;-72
2022/09/19 02:16:38;;;;;;;0.95;0.95;;;6.70;99.90;;;;;;5044989;28;20183;-72
2022/09/19 02:19:06;;;;;;;0.80;0.80;;;6.80;99.90;;;;;;5036703;28;20193;-72
2022/09/19 02:21:47;;;;;;;0.70;0.70;;;6.80;99.90;;;;;;5040901;28;20239;-73
2022/09/19 02:24:17;;;;;;;0.88;0.88;;;6.80;99.90;;;;;;5040820;28;20204;-72
2022/09/19 02:26:48;;;;;;;0.60;0.45;;;6.90;99.90;;;;;;5042293;28;20200;-72
2022/09/19 02:29:17;;;;;;;2.72;0.80;;;7.00;99.90;;;;;;5044672;28;20177;-72
2022/09/19 02:31:43;;;;;;;0.90;0.90;;;7.00;99.90;;;;;;5042127;28;20196;-72
2022/09/19 02:34:09;;;;;;;0.77;0.77;;;7.00;99.90;;;;;;5042785;28;20187;-72
2022/09/19 02:36:52;;;;;;;2.22;0.70;;;7.00;99.90;;;;;;5040997;28;20192;-72
2022/09/19 02:39:31;;;;;;;0.90;0.68;;;7.20;99.90;;;;;;5043126;28;20286;-72
2022/09/19 02:42:22;;;;;;;0.95;0.70;;;7.10;99.90;;;;;;5026407;28;20192;-72
2022/09/19 02:45:00;;;;;;;0.95;0.90;;;7.10;99.90;;;;;;5042262;28;20617;-72
2022/09/19 02:47:49;;;;;;;1.35;1.02;;;7.10;99.90;;;;;;5043584;28;20207;-71
2022/09/19 02:50:16;;;;;;;1.05;0.98;;;7.10;99.90;;;;;;5035936;28;20291;-72
2022/09/19 02:52:45;;;;;;;0.65;0.65;;;7.20;99.90;;;;;;5040502;28;20561;-72
2022/09/19 02:55:16;;;;;;;0.80;0.80;;;7.30;99.90;;;;;;5039470;28;20180;-72
2022/09/19 02:57:48;;;;;;;0.77;0.77;;;7.40;99.90;;;;;;5038586;28;20180;-72
2022/09/19 03:00:15;;;;;;;2.00;1.25;;;7.40;99.90;;;;;;5031043;28;20200;-72
2022/09/19 03:02:56;;;;;;;2.67;1.30;;;7.30;99.90;;;;;;5027779;28;20189;-71
2022/09/19 03:05:25;;;;;;;2.70;1.33;;;7.40;99.90;;;;;;5032442;28;20196;-71
2022/09/19 03:08:15;;;;;;;0.93;0.88;;;7.50;99.90;;;;;;5033331;28;20180;-71
2022/09/19 03:10:46;;;;;;;0.70;0.70;;;7.50;99.90;;;;;;5038075;28;20209;-71
2022/09/19 03:13:12;;;;;;;1.10;1.10;;;7.50;99.90;;;;;;5031770;28;20169;-72
2022/09/19 03:15:49;;;;;;;2.28;1.35;;;7.60;99.90;;;;;;5031917;28;20242;-73
2022/09/19 03:18:18;;;;;;;1.08;1.08;;;7.60;99.90;;;;;;5040124;28;20171;-73
2022/09/19 03:20:53;;;;;;;1.60;1.50;;;7.60;99.90;;;;;;5029215;28;20289;-72
2022/09/19 03:23:24;;;;;;;1.20;1.20;;;7.60;99.90;;;;;;5040066;28;20195;-73
2022/09/19 03:25:50;;;;;;;1.90;1.17;;;7.60;99.90;;;;;;5043132;28;20225;-72
2022/09/19 03:28:19;;;;;;;1.23;1.23;;;7.70;99.90;;;;;;5038945;28;20176;-73
2022/09/19 03:30:45;;;;;;;1.75;1.65;;;7.70;99.90;;;;;;5041881;28;20269;-72
2022/09/19 03:33:15;;;;;;;1.35;1.25;;;7.70;99.90;;;;;;5037787;28;20259;-72
2022/09/19 03:35:42;;;;;;;2.30;2.20;;;7.80;99.90;;;;;;5041816;28;20167;-72
2022/09/19 03:38:08;;;;;;;2.05;1.40;;;7.80;99.90;;;;;;5028798;28;20256;-72
2022/09/19 03:40:34;;;;;;;3.25;1.40;;;7.80;99.90;;;;;;5042169;28;20421;-72
2022/09/19 03:43:00;;;;;;;3.33;1.67;;;7.80;99.90;;;;;;5039203;28;20184;-71
2022/09/19 03:45:26;;;;;;;4.05;1.92;;;7.80;99.90;;;;;;5042485;28;20202;-72
2022/09/19 03:47:52;;;;;;;3.28;1.55;;;7.90;99.90;;;;;;5040212;28;20176;-72
2022/09/19 03:50:18;;;;;;;2.95;1.80;;;7.90;99.90;;;;;;5045192;28;20199;-72
2022/09/19 03:52:49;;;;;;;2.05;1.70;;;7.80;99.90;;;;;;5039366;28;20557;-72
2022/09/19 03:55:15;;;;;;;2.80;1.85;;;7.80;99.90;;;;;;5039266;28;20607;-72
2022/09/19 03:57:40;;;;;;;3.05;1.58;;;7.80;99.90;;;;;;5045235;28;20231;-72
2022/09/19 04:00:07;;;;;;;7.05;1.20;;;7.80;99.90;;;;;;5036723;28;20204;-72
2022/09/19 04:02:33;;;;;;;1.83;1.60;;;7.80;99.90;;;;;;5040420;28;20251;-72
2022/09/19 04:04:59;;;;;;;2.15;1.50;;;7.80;99.90;;;;;;5047429;28;20635;-72
2022/09/19 04:07:27;;;;;;;1.75;1.70;;;7.90;99.90;;;;;;5047027;28;20305;-72
2022/09/19 04:09:54;;;;;;;2.55;1.50;;;7.90;99.90;;;;;;5043168;28;20172;-71
2022/09/19 04:12:19;;;;;;;1.60;1.50;;;8.00;99.90;;;;;;5034184;28;20668;-72
2022/09/19 04:14:45;;;;;;;1.10;1.10;;;8.00;99.90;;;;;;5030118;28;20193;-71
2022/09/19 04:17:11;;;;;;;2.17;2.03;;;8.00;99.90;;;;;;5047989;28;20651;-72
2022/09/19 04:19:37;;;;;;;3.05;2.10;;;7.90;99.90;;;;;;5038077;28;20195;-73
2022/09/19 04:22:02;;;;;;;2.25;1.92;;;7.90;99.90;;;;;;5046533;28;20246;-73
2022/09/19 04:24:29;;;;;;;2.35;1.40;;;7.80;99.90;;;;;;5042439;28;20200;-72
2022/09/19 04:26:59;;;;;;;2.00;1.90;;;7.90;99.90;;;;;;5046169;28;20647;-72
2022/09/19 04:29:27;;;;;;;2.75;1.80;;;7.80;99.90;;;;;;5039878;28;20176;-72
2022/09/19 04:31:53;;;;;;;3.20;2.28;;;7.80;99.90;;;;;;5029439;28;20211;-72
2022/09/19 04:34:19;;;;;;;3.38;2.08;;;7.80;99.90;;;;;;5032718;28;20181;-72
2022/09/19 04:36:48;;;;;;;4.28;1.67;;;7.80;99.90;;;;;;5030899;28;20604;-73
2022/09/19 04:39:14;;;;;;;2.28;2.08;;;7.90;99.90;;;;;;5029777;28;20199;-73
2022/09/19 04:41:40;;;;;;;2.15;1.95;;;7.90;99.90;;;;;;5029444;28;20645;-74
2022/09/19 04:44:10;;;;;;;2.03;1.85;;;8.00;99.90;;;;;;5034610;28;20203;-73
2022/09/19 04:46:41;;;;;;;1.63;1.50;;;8.00;99.90;;;;;;5027175;28;20555;-73
2022/09/19 04:49:07;;;;;;;2.63;2.10;;;8.10;99.90;;;;;;5028918;28;20173;-73
2022/09/19 04:51:33;;;;;;;1.50;1.33;;;8.10;99.90;;;;;;5031045;28;20254;-74
2022/09/19 04:54:01;;;;;;;2.55;2.35;;;8.10;99.90;;;;;;5033069;28;20196;-73
2022/09/19 04:56:27;;;;;;;4.00;2.00;;;8.00;99.90;;;;;;5042664;28;20250;-73
2022/09/19 04:58:53;;;;;;;1.95;1.33;;;8.00;99.90;;;;;;5036864;28;20180;-74
2022/09/19 05:01:18;;;;;;;2.33;2.13;;;8.10;99.90;;;;;;5026301;28;20507;-73
2022/09/19 05:03:44;;;;;;;2.17;1.95;;;8.10;99.90;;;;;;5034824;28;20204;-73
2022/09/19 05:06:14;;;;;;;3.33;2.10;;;8.20;99.90;;;;;;5032672;28;20179;-74
2022/09/19 05:08:40;;;;;;;3.78;2.13;;;8.10;99.90;;;;;;5038310;28;20181;-73
2022/09/19 05:11:07;;;;;;;2.80;2.60;;;8.10;99.90;;;;;;5037420;28;20206;-73
2022/09/19 05:13:40;;;;;;;2.58;2.22;;;8.10;99.90;;;;;;5028875;28;20193;-73
2022/09/19 05:16:07;;;;;;;2.65;1.85;;;8.20;99.90;;;;;;5035730;28;20250;-72
2022/09/19 05:18:35;;;;;;;2.28;2.13;;;8.20;99.90;;;;;;5030532;28;20184;-72
2022/09/19 05:21:06;;;;;;;1.83;1.73;;;8.20;99.90;;;;;;5034673;28;20231;-75
2022/09/19 05:23:33;;;;;;;2.13;1.60;;;8.30;99.90;;;;;;5035281;28;20208;-75
2022/09/19 05:26:06;;;;;;;3.17;1.95;;;8.30;99.90;;;;;;5045687;28;20525;-74
2022/09/19 05:28:32;;;;;;;2.08;1.98;;;8.40;99.90;;;;;;5035199;28;20181;-73
2022/09/19 05:31:00;;;;;;;2.45;2.28;;;8.30;99.90;;;;;;5045298;28;20242;-73
2022/09/19 05:33:26;;;;;;;2.50;1.52;;;8.40;99.90;;;;;;5045181;28;20168;-72
2022/09/19 05:35:56;;;;;;;3.80;2.30;;;8.40;99.90;;;;;;5042943;28;20290;-73
2022/09/19 05:38:26;;;;;;;4.78;2.28;;;8.40;99.90;;;;;;5036126;28;20241;-73
2022/09/19 05:40:56;;;;;;;1.98;1.88;;;8.40;99.90;;;;;;5040217;28;20561;-72
2022/09/19 05:43:22;;;;;;;2.20;2.10;;;8.50;99.90;;;;;;5040147;28;20231;-72
2022/09/19 05:45:52;;;;;;;2.30;2.20;;;8.60;99.90;;;;;;5040525;28;20245;-72
2022/09/19 05:48:18;;;;;;;3.70;2.13;;;8.60;99.90;;;;;;5038857;28;20177;-72
2022/09/19 05:50:44;;;;;;;2.63;2.45;;;8.70;99.90;;;;;;5040353;28;20222;-73
2022/09/19 05:55:55;;;;;;;3.10;2.28;;;8.60;99.90;;;;;;5031148;28;20278;-72
2022/09/19 05:58:21;;;;;;;2.08;1.88;;;8.60;99.90;;;;;;5029079;28;20168;-72
2022/09/19 06:00:47;;;;;;;2.47;2.22;;;8.60;99.90;;;;;;5035370;28;20246;-73
2022/09/19 06:03:17;;;;;;;2.67;2.15;;;8.60;99.90;;;;;;5032635;28;20212;-72
2022/09/19 06:05:45;;;;;;;2.40;2.20;;;8.60;99.90;;;;;;5034042;28;20703;-72
2022/09/19 06:08:11;;;;;;;2.88;2.47;;;8.70;99.90;;;;;;5038842;28;20184;-72
2022/09/19 06:10:40;;;;;;;3.78;2.45;;;8.60;99.90;;;;;;5040460;28;20572;-72
2022/09/19 06:13:08;;;;;;;1.95;1.85;;;8.70;99.90;;;;;;5024061;28;20181;-72
2022/09/19 06:15:34;;;;;;;2.22;2.03;;;8.70;99.90;;;;;;5040229;28;20275;-72
2022/09/19 06:17:59;;;;;;;2.28;2.03;;;8.70;99.90;;;;;;5034562;28;20254;-74
2022/09/19 06:20:25;;;;;;;3.13;2.55;;;8.70;99.90;;;;;;5032768;28;20288;-73
2022/09/19 06:23:02;;;;;;;2.67;2.47;;;8.70;99.90;;;;;;5036920;28;20184;-71
2022/09/19 06:25:31;;;;;;;2.35;2.08;;;8.70;99.90;;;;;;5043183;28;20206;-74
2022/09/19 06:27:59;;;;;;;2.55;2.38;;;8.70;99.90;;;;;;5022532;28;20180;-74
2022/09/19 06:30:26;;;;;;;2.50;2.28;;;8.80;99.90;;;;;;5026324;28;20196;-74
2022/09/19 06:32:52;;;;;;;4.38;2.30;;;8.80;99.90;;;;;;5033885;28;20544;-74
2022/09/19 06:35:19;;;;;;;4.03;1.90;;;8.90;99.90;;;;;;5043927;28;20225;-75
2022/09/19 06:37:45;;;;;;;1.30;1.30;;;8.90;99.90;;;;;;5023862;28;20180;-75
2022/09/19 06:40:12;;;;;;;2.85;2.60;;;8.90;99.90;;;;;;5039463;28;20196;-74
2022/09/19 06:42:37;;;;;;;2.15;2.05;;;9.00;99.90;;;;;;5034781;28;20188;-74
2022/09/19 06:45:06;;;;;;;2.83;2.58;;;8.90;99.90;;;;;;5028427;28;20203;-74
2022/09/19 06:47:32;;;;;;;2.75;2.55;;;8.90;99.90;;;;;;5030165;28;20176;-74
2022/09/19 06:50:01;;;;;;;2.33;2.15;;;8.90;99.90;;;;;;5036152;28;20175;-74
2022/09/19 06:52:27;;;;;;;2.90;2.72;;;8.90;99.90;;;;;;5030119;28;20175;-74
2022/09/19 06:54:53;;;;;;;3.63;3.20;;;8.90;99.90;;;;;;5035773;28;20424;-74
2022/09/19 06:57:19;;;;;;;4.40;2.88;;;8.90;99.90;;;;;;5031440;28;20428;-75
2022/09/19 06:59:45;;;;;;;4.88;2.63;;;9.00;99.90;;;;;;5029837;28;20205;-74
2022/09/19 07:02:12;;;;;;;2.33;2.22;;;9.20;99.90;;;;;;5035455;28;20184;-76
2022/09/19 07:04:38;;;;;;;3.92;2.85;;;9.30;99.90;;;;;;5024331;28;20284;-76
2022/09/19 07:07:05;;;;;;;2.28;2.08;;;9.40;99.90;;;;;;5038661;28;20176;-76
2022/09/19 07:09:30;;;;;;;3.25;2.17;;;9.40;99.90;;;;;;5045227;28;20218;-76
2022/09/19 07:11:56;;;;;;;2.65;2.30;;;9.50;99.90;;;;;;5035446;28;20234;-76
2022/09/19 07:14:22;;;;;;;2.80;1.83;;;9.60;99.90;;;;;;5036517;28;20181;-77
2022/09/19 07:16:48;;;;;;;1.67;1.63;;;9.70;99.90;;;;;;5043594;28;20179;-75
2022/09/19 07:19:14;;;;;;;5.13;3.20;;;9.80;99.90;;;;;;5025746;28;20357;-76
2022/09/19 07:21:40;;;;;;;2.65;2.05;;;9.80;99.90;;;;;;5030884;28;20236;-76
2022/09/19 07:24:06;;;;;;;1.55;1.38;;;10.00;99.90;;;;;;5042970;28;20669;-76
2022/09/19 07:26:32;;;;;;;3.33;2.28;;;10.20;99.90;;;;;;5026106;28;20181;-74
2022/09/19 07:28:58;;;;;;;2.25;2.10;;;10.40;99.90;;;;;;5022668;28;20391;-76
2022/09/19 07:31:25;;;;;;;2.00;1.65;;;10.50;99.90;;;;;;5039769;28;20559;-80
2022/09/19 07:33:51;;;;;;;2.53;2.33;;;10.50;99.90;;;;;;5044478;28;20270;-80
2022/09/19 07:36:21;;;;;;;3.22;2.22;;;10.50;99.90;;;;;;5033838;28;20216;-79
2022/09/19 07:38:50;;;;;;;4.78;2.40;;;10.60;99.90;;;;;;5038744;28;20185;-82
2022/09/19 07:41:16;;;;;;;2.63;2.03;;;10.70;99.90;;;;;;5034052;28;20204;-78
2022/09/19 07:43:43;;;;;;;2.28;1.95;;;10.90;99.90;;;;;;5034328;28;20213;-76
2022/09/19 07:46:14;;;;;;;2.17;1.63;;;11.20;99.90;;;;;;5029681;28;20204;-78
2022/09/19 07:48:41;;;;;;;3.30;1.88;;;11.40;99.90;;;;;;5029563;28;20172;-76
2022/09/19 07:51:08;;;;;;;2.95;1.90;;;11.50;99.90;;;;;;5030370;28;20203;-77
2022/09/19 07:53:33;;;;;;;3.25;1.58;;;11.50;99.90;;;;;;5043572;28;20176;-76
2022/09/19 07:55:59;;;;;;;3.17;2.17;;;11.70;99.90;;;;;;5035967;28;20186;-75
2022/09/19 07:58:26;;;;;;;1.73;1.50;;;11.90;99.90;;;;;;5043016;28;20278;-76
2022/09/19 08:00:53;;;;;;;2.03;1.83;;;12.40;99.90;;;;;;5026302;28;20218;-75
2022/09/19 08:03:20;;;;;;;1.75;1.48;;;12.70;99.90;;;;;;5030958;28;20262;-76
2022/09/19 08:05:48;;;;;;;4.70;1.80;;;12.80;99.90;;;;;;5038532;28;20212;-76
2022/09/19 08:08:16;;;;;;;2.97;2.03;;;12.90;99.90;;;;;;5038776;28;20266;-76
2022/09/19 08:10:43;;;;;;;1.02;0.98;;;13.00;99.90;;;;;;5039206;28;20195;-76
2022/09/19 08:13:10;;;;;;;1.58;1.27;;;13.10;99.90;;;;;;5026207;28;20173;-76
2022/09/19 08:15:37;;;;;;;1.77;1.17;;;13.20;99.90;;;;;;5027388;28;20180;-77
2022/09/19 08:18:13;;;;;;;2.20;1.60;;;13.20;99.90;;;;;;5036453;28;20172;-77
2022/09/19 08:20:39;;;;;;;1.30;1.30;;;13.20;99.90;;;;;;5038649;28;20287;-76
2022/09/19 08:23:11;;;;;;;4.20;1.40;;;13.40;99.90;;;;;;5041115;28;20212;-77
2022/09/19 08:25:38;;;;;;;2.20;1.50;;;13.40;99.90;;;;;;5026953;28;20184;-75
2022/09/19 08:28:05;;;;;;;2.17;1.60;;;13.50;99.90;;;;;;5042616;28;20184;-75
2022/09/19 08:30:33;;;;;;;2.00;1.80;;;13.70;99.90;;;;;;5020902;28;20623;-76
2022/09/19 08:33:01;;;;;;;1.60;1.50;;;14.00;99.90;;;;;;5027284;28;20196;-76
2022/09/19 08:35:37;;;;;;;1.70;1.33;;;14.20;99.90;;;;;;5040784;28;20211;-76
2022/09/19 08:38:05;;;;;;;2.15;1.35;;;14.60;99.90;;;;;;5033319;28;20183;-76
2022/09/19 08:40:36;;;;;;;1.52;1.42;;;15.00;99.90;;;;;;5030714;28;20753;-77
2022/09/19 08:43:07;;;;;;;1.35;1.27;;;15.20;99.90;;;;;;5044059;28;20192;-76
2022/09/19 08:45:55;;;;;;;1.70;1.10;;;15.50;99.90;;;;;;5020916;28;20707;-78
2022/09/19 08:48:24;;;;;;;2.38;1.38;;;15.50;99.90;;;;;;5049070;28;20188;-80
2022/09/19 08:51:20;;;;;;;1.58;1.38;;;15.30;99.90;;;;;;5038409;28;20204;-78
2022/09/19 08:53:51;;;;;;;2.03;1.30;;;15.40;99.90;;;;;;5041694;28;20192;-79
2022/09/19 08:56:19;;;;;;;1.58;1.33;;;15.40;99.90;;;;;;5039701;28;20554;-76
2022/09/19 08:58:50;;;;;;;2.42;1.13;;;16.00;99.90;;;;;;5042113;28;20184;-78
2022/09/19 09:01:18;;;;;;;1.10;1.00;;;17.20;99.90;;;;;;5038288;28;20227;-78
2022/09/19 09:04:19;;;;;;;0.80;0.80;;;19.60;99.90;;;;;;5049792;28;20196;-76
2022/09/19 09:07:08;;;;;;;3.25;1.00;;;20.20;99.90;;;;;;5048814;28;20180;-77
2022/09/19 09:09:53;;;;;;;0.90;0.90;;;19.30;99.90;;;;;;5027880;28;20177;-76
2022/09/19 09:12:38;;;;;;;1.08;0.90;;;20.10;99.90;;;;;;5037391;28;20176;-76
2022/09/19 09:15:20;;;;;;;1.95;0.98;;;20.90;99.90;;;;;;5023946;28;20187;-76
2022/09/19 09:18:08;;;;;;;1.80;0.82;;;22.40;95.90;;;;;;5034712;28;20272;-76
2022/09/19 09:20:52;;;;;;;1.00;0.82;;;22.60;93.20;;;;;;5034521;28;20215;-78
2022/09/19 09:23:39;;;;;;;1.15;0.75;;;21.40;92.90;;;;;;5029421;28;20181;-77
2022/09/19 09:26:13;;;;;;;1.83;1.00;;;19.90;97.20;;;;;;5026999;28;20184;-76
2022/09/19 09:28:44;;;;;;;0.98;0.90;;;20.10;97.00;;;;;;5038096;28;20244;-77
2022/09/19 09:31:27;;;;;;;1.58;0.73;;;20.00;98.60;;;;;;5041328;28;20199;-76
2022/09/19 09:34:10;;;;;;;1.73;1.23;;;20.00;96.60;;;;;;5043562;28;20242;-77
2022/09/19 09:36:42;;;;;;;1.55;1.45;;;19.20;97.30;;;;;;5042971;28;20348;-77
2022/09/19 09:39:25;;;;;;;1.17;1.08;;;18.30;99.90;;;;;;5046072;28;20187;-76
2022/09/19 09:41:56;;;;;;;1.63;1.42;;;17.60;99.90;;;;;;5042851;28;20322;-76
2022/09/19 09:44:51;;;;;;;1.08;1.02;;;17.40;99.90;;;;;;5036688;28;20217;-76
2022/09/19 09:47:26;;;;;;;2.65;1.20;;;17.00;99.90;;;;;;5027403;28;20484;-75
2022/09/19 09:50:00;;;;;;;1.25;1.17;;;17.00;99.90;;;;;;5030648;28;20192;-77
2022/09/19 09:52:41;;;;;;;1.13;1.08;;;17.20;99.90;;;;;;5031253;28;20662;-76
2022/09/19 09:58:25;;;;;;;1.85;1.27;;;18.80;99.90;;;;;;5022985;28;20200;-75
2022/09/19 10:04:03;;;;;;;1.55;1.10;;;18.60;99.90;;;;;;5044573;28;20198;-78
2022/09/19 10:06:34;;;;;;;1.23;1.23;;;18.60;99.90;;;;;;5041318;28;20180;-77
2022/09/19 10:09:22;;;;;;;1.58;1.48;;;18.30;99.90;;;;;;5049662;28;20233;-79
2022/09/19 10:12:07;;;;;;;0.70;0.70;;;18.40;99.90;;;;;;5053842;28;20272;-78
2022/09/19 10:14:37;;;;;;;1.50;1.40;;;18.20;99.90;;;;;;5056671;28;20203;-78
2022/09/19 10:17:05;;;;;;;2.60;1.45;;;17.70;99.90;;;;;;5058887;28;20194;-77
2022/09/19 10:19:45;;;;;;;3.33;1.23;;;17.20;99.90;;;;;;5037986;28;20185;-78
2022/09/19 10:22:14;;;;;;;1.35;1.25;;;16.60;99.90;;;;;;5035436;28;20201;-77
2022/09/19 10:24:56;;;;;;;1.38;1.27;;;16.20;99.90;;;;;;5027464;28;20242;-75
2022/09/19 10:27:31;;;;;;;4.65;2.28;;;15.90;99.90;;;;;;5032338;28;20180;-75
2022/09/19 10:30:10;;;;;;;2.42;1.65;;;15.60;99.90;;;;;;5028349;28;20231;-75
2022/09/19 10:32:39;;;;;;;1.48;1.20;;;15.30;99.90;;;;;;5034456;28;20255;-76
2022/09/19 10:35:35;;;;;;;1.10;1.10;;;15.10;99.90;;;;;;5026023;28;20207;-76
2022/09/19 10:38:02;;;;;;;3.17;1.98;;;15.20;99.90;;;;;;5029147;28;20197;-76
2022/09/19 10:40:30;;;;;;;1.52;1.42;;;15.10;99.90;;;;;;5035522;28;20204;-76
2022/09/19 10:43:00;;;;;;;1.42;1.17;;;15.10;99.90;;;;;;5033659;28;20284;-76
2022/09/19 10:45:30;;;;;;;4.18;1.45;;;14.90;99.90;;;;;;5041049;28;20212;-76
2022/09/19 10:48:05;;;;;;;2.45;1.48;;;14.70;99.90;;;;;;5038290;28;20519;-76
2022/09/19 10:50:50;;;;;;;2.33;1.40;;;14.80;99.90;;;;;;5036024;28;20192;-76
2022/09/19 10:53:45;;;;;;;2.85;1.60;;;15.10;99.90;;;;;;5034082;28;20567;-77
2022/09/19 10:56:59;;;;;;;3.58;1.88;;;15.40;99.90;;;;;;5038714;28;20188;-75
2022/09/19 10:59:37;;;;;;;2.05;1.85;;;15.20;99.90;;;;;;5040519;28;20599;-75
2022/09/19 11:02:11;;;;;;;2.33;1.50;;;14.80;99.90;;;;;;5030612;28;20554;-75
2022/09/19 11:04:38;;;;;;;1.27;1.17;;;14.40;99.90;;;;;;5021449;28;20263;-75
2022/09/19 11:07:16;;;;;;;1.90;1.35;;;14.30;99.90;;;;;;5031657;28;20208;-78
2022/09/19 11:09:44;;;;;;;1.55;1.40;;;14.20;99.90;;;;;;5030523;28;20181;-75
2022/09/19 11:12:13;;;;;;;1.40;1.30;;;14.20;99.90;;;;;;5030047;28;20666;-74
2022/09/19 11:14:44;;;;;;;1.73;1.52;;;13.90;99.90;;;;;;5050713;28;20183;-77
2022/09/19 11:17:32;;;;;;;2.35;1.38;;;13.80;99.90;;;;;;5042517;28;20172;-76
2022/09/19 11:19:58;;;;;;;2.40;1.63;;;13.70;99.90;;;;;;5038700;28;20642;-76
2022/09/19 11:22:31;;;;;;;3.28;2.08;;;13.70;99.90;;;;;;5039749;28;20203;-75
2022/09/19 11:25:18;;;;;;;1.85;1.55;;;13.50;99.90;;;;;;5028252;28;20233;-80
2022/09/19 11:28:21;;;;;;;2.00;1.88;;;13.50;99.90;;;;;;5026251;28;20177;-77
2022/09/19 11:31:06;;;;;;;1.95;1.60;;;13.90;99.90;;;;;;5027981;28;20288;-75
2022/09/19 11:33:57;;;;;;;1.98;1.88;;;14.90;99.90;;;;;;5023204;28;20191;-76
2022/09/19 11:36:35;;;;;;;1.35;1.27;;;16.40;99.90;;;;;;5027777;28;20177;-77
2022/09/19 11:39:53;;;;;;;2.78;1.48;;;17.20;99.90;;;;;;5019857;28;20231;-77
2022/09/19 11:42:30;;;;;;;1.75;1.17;;;17.90;99.90;;;;;;5027719;28;20687;-75
2022/09/19 11:45:07;;;;;;;1.10;1.10;;;19.90;99.90;;;;;;5031870;28;20265;-75
2022/09/19 11:47:36;;;;;;;3.45;0.98;;;22.00;99.90;;;;;;5029147;28;20177;-78
2022/09/19 11:50:08;;;;;;;1.55;1.27;;;22.20;94.70;;;;;;5023867;28;20272;-76
2022/09/19 11:52:50;;;;;;;1.73;0.95;;;21.50;95.50;;;;;;5032581;28;20268;-77
2022/09/19 11:55:43;;;;;;;0.85;0.85;;;21.60;95.60;;;;;;5032437;28;20253;-78
2022/09/19 11:58:48;;;;;;;2.17;0.88;;;22.00;93.20;;;;;;5048674;28;20669;-78
2022/09/19 12:02:09;;;;;;;2.15;1.50;;;20.90;94.50;;;;;;5035334;28;20438;-78
2022/09/19 12:04:40;;;;;;;0.57;0.50;;;19.70;97.60;;;;;;5036068;28;20199;-78
2022/09/19 12:07:42;;;;;;;1.58;0.85;;;19.00;98.00;;;;;;5033839;28;20199;-78
2022/09/19 12:10:19;;;;;;;2.45;1.25;;;18.90;98.70;;;;;;5023886;28;20569;-76
2022/09/19 12:12:54;;;;;;;2.30;0.90;;;19.00;98.60;;;;;;5031494;28;20176;-73
2022/09/19 12:15:27;;;;;;;0.80;0.80;;;19.20;97.40;;;;;;5026985;28;20259;-75
2022/09/19 12:18:27;;;;;;;0.80;0.80;;;19.70;95.70;;;;;;5023340;28;20234;-74
2022/09/19 12:20:57;;;;;;;1.10;1.10;;;20.50;92.40;;;;;;5026741;28;20322;-75
2022/09/19 12:24:52;;;;;;;1.30;0.68;;;20.50;92.70;;;;;;5026315;28;20206;-74
2022/09/19 12:26:33;;;;;;;1.42;0.57;;;21.10;92.10;;;;;;5030714;28;20262;-75
2022/09/19 12:29:24;;;;;;;0.68;0.68;;;21.80;90.00;;;;;;5025638;28;20202;-75
2022/09/19 12:31:58;;;;;;;1.70;1.05;;;21.60;88.80;;;;;;5038491;28;20192;-74
2022/09/19 12:34:47;;;;;;;1.20;1.20;;;21.20;88.00;;;;;;5038197;28;20187;-74
2022/09/19 12:37:38;;;;;;;0.70;0.70;;;20.30;91.40;;;;;;5034526;28;20652;-74
2022/09/19 12:40:24;;;;;;;1.10;1.00;;;19.90;91.70;;;;;;5031785;28;20188;-75
2022/09/19 12:43:23;;;;;;;0.90;0.90;;;19.70;92.60;;;;;;5031972;28;20200;-74
2022/09/19 12:46:50;;;;;;;1.80;1.15;;;20.70;92.90;;;;;;5037868;28;20180;-74
2022/09/19 12:49:31;;;;;;;1.30;1.20;;;22.20;89.50;;;;;;5040715;28;20589;-74
2022/09/19 12:52:12;;;;;;;1.95;1.33;;;21.20;90.90;;;;;;5038381;28;20183;-75
2022/09/19 12:55:17;;;;;;;1.17;1.08;;;20.30;92.10;;;;;;5035506;28;20188;-74
2022/09/19 12:58:03;;;;;;;3.70;1.08;;;19.10;95.30;;;;;;5034516;28;20203;-75
2022/09/19 13:00:31;;;;;;;1.92;1.10;;;18.20;99.90;;;;;;5034951;28;20639;-76
2022/09/19 13:03:23;;;;;;;0.80;0.80;;;17.30;99.90;;;;;;5047004;28;20648;-74
2022/09/19 13:05:57;;;;;;;1.20;1.10;;;16.60;99.90;;;;;;5024478;28;20181;-74
2022/09/19 13:08:35;;;;;;;1.65;1.30;;;16.30;99.90;;;;;;5026268;28;20178;-75
2022/09/19 13:11:21;;;;;;;1.38;0.82;;;16.30;99.90;;;;;;5018891;28;20196;-75
2022/09/19 13:13:59;;;;;;;0.95;0.95;;;16.90;99.90;;;;;;5031030;28;20173;-76
2022/09/19 13:25:13;;;;;;;2.00;1.15;;;21.90;91.60;;;;;;5025563;28;20747;-75
2022/09/19 13:27:42;;;;;;;1.92;1.27;;;21.40;90.80;;;;;;5027653;28;20188;-74
2022/09/19 13:30:48;;;;;;;1.83;1.27;;;20.60;93.90;;;;;;5023934;28;20207;-75
2022/09/19 13:33:44;;;;;;;1.40;1.02;;;19.90;93.80;;;;;;5029195;28;20223;-75
2022/09/19 13:36:13;;;;;;;1.38;1.10;;;18.90;95.80;;;;;;5021476;28;20259;-74
2022/09/19 13:38:47;;;;;;;1.20;1.00;;;18.30;97.30;;;;;;5024448;28;20181;-73
2022/09/19 13:41:32;;;;;;;1.10;0.90;;;18.20;96.40;;;;;;5025165;28;20695;-75
2022/09/19 13:44:23;;;;;;;0.98;0.82;;;18.10;97.30;;;;;;5022171;28;20266;-74
2022/09/19 13:46:58;;;;;;;3.08;1.15;;;18.00;98.10;;;;;;5026245;28;20199;-73
2022/09/19 13:49:41;;;;;;;1.15;1.05;;;18.20;98.80;;;;;;5032520;28;20251;-78